sensor_id;sensor_type;location;lat;lon;timestamp;P1;durP1;ratioP1;P2;durP2;ratioP2
62202;SDS011;48199;49.138;7.414;2023-11-19T00:00:25;1.87;;;0.80;;
62202;SDS011;48199;49.138;7.414;2023-11-19T00:02:51;1.95;;;0.80;;
62202;SDS011;48199;49.138;7.414;2023-11-19T00:05:16;0.67;;;0.53;;
62202;SDS011;48199;49.138;7.414;2023-11-19T00:07:41;1.42;;;0.75;;
62202;SDS011;48199;49.138;7.414;2023-11-19T00:10:08;2.42;;;0.70;;
62202;SDS011;48199;49.138;7.414;2023-11-19T00:12:36;1.10;;;0.75;;
62202;SDS011;48199;49.138;7.414;2023-11-19T00:15:01;0.80;;;0.60;;
62202;SDS011;48199;49.138;7.414;2023-11-19T00:17:26;0.93;;;0.57;;
62202;SDS011;48199;49.138;7.414;2023-11-19T00:19:52;0.93;;;0.70;;
62202;SDS011;48199;49.138;7.414;2023-11-19T00:22:17;1.50;;;0.50;;
62202;SDS011;48199;49.138;7.414;2023-11-19T00:24:42;0.80;;;0.77;;
62202;SDS011;48199;49.138;7.414;2023-11-19T00:27:07;1.73;;;0.60;;
62202;SDS011;48199;49.138;7.414;2023-11-19T00:29:33;0.85;;;0.65;;
62202;SDS011;48199;49.138;7.414;2023-11-19T00:31:58;1.17;;;0.90;;
62202;SDS011;48199;49.138;7.414;2023-11-19T00:34:23;0.63;;;0.57;;
62202;SDS011;48199;49.138;7.414;2023-11-19T00:36:48;0.93;;;0.60;;
62202;SDS011;48199;49.138;7.414;2023-11-19T00:39:14;0.77;;;0.50;;
62202;SDS011;48199;49.138;7.414;2023-11-19T00:41:40;0.85;;;0.60;;
62202;SDS011;48199;49.138;7.414;2023-11-19T00:44:05;0.88;;;0.60;;
62202;SDS011;48199;49.138;7.414;2023-11-19T00:46:30;0.70;;;0.70;;
62202;SDS011;48199;49.138;7.414;2023-11-19T00:48:57;1.00;;;0.60;;
62202;SDS011;48199;49.138;7.414;2023-11-19T00:51:24;1.00;;;0.60;;
62202;SDS011;48199;49.138;7.414;2023-11-19T00:53:49;1.73;;;0.70;;
62202;SDS011;48199;49.138;7.414;2023-11-19T00:56:15;1.77;;;0.70;;
62202;SDS011;48199;49.138;7.414;2023-11-19T00:58:42;3.33;;;0.85;;
62202;SDS011;48199;49.138;7.414;2023-11-19T01:01:07;0.75;;;0.75;;
62202;SDS011;48199;49.138;7.414;2023-11-19T01:03:32;1.83;;;0.47;;
62202;SDS011;48199;49.138;7.414;2023-11-19T01:05:58;1.53;;;0.70;;
62202;SDS011;48199;49.138;7.414;2023-11-19T01:08:24;1.08;;;0.68;;
62202;SDS011;48199;49.138;7.414;2023-11-19T01:10:50;1.90;;;0.60;;
62202;SDS011;48199;49.138;7.414;2023-11-19T01:13:15;0.80;;;0.70;;
62202;SDS011;48199;49.138;7.414;2023-11-19T01:15:40;4.17;;;0.60;;
62202;SDS011;48199;49.138;7.414;2023-11-19T01:18:06;0.60;;;0.55;;
62202;SDS011;48199;49.138;7.414;2023-11-19T01:20:33;1.00;;;0.70;;
62202;SDS011;48199;49.138;7.414;2023-11-19T01:22:59;0.60;;;0.60;;
62202;SDS011;48199;49.138;7.414;2023-11-19T01:25:24;0.60;;;0.60;;
62202;SDS011;48199;49.138;7.414;2023-11-19T01:27:50;0.60;;;0.60;;
62202;SDS011;48199;49.138;7.414;2023-11-19T01:30:15;0.70;;;0.70;;
62202;SDS011;48199;49.138;7.414;2023-11-19T01:32:40;2.30;;;0.67;;
62202;SDS011;48199;49.138;7.414;2023-11-19T01:35:06;4.97;;;0.70;;
62202;SDS011;48199;49.138;7.414;2023-11-19T01:37:33;0.82;;;0.68;;
62202;SDS011;48199;49.138;7.414;2023-11-19T01:39:59;0.60;;;0.57;;
62202;SDS011;48199;49.138;7.414;2023-11-19T01:42:24;0.93;;;0.70;;
62202;SDS011;48199;49.138;7.414;2023-11-19T01:44:59;0.73;;;0.70;;
62202;SDS011;48199;49.138;7.414;2023-11-19T01:47:25;1.25;;;0.68;;
62202;SDS011;48199;49.138;7.414;2023-11-19T01:49:50;3.72;;;0.60;;
62202;SDS011;48199;49.138;7.414;2023-11-19T01:52:16;1.65;;;0.93;;
62202;SDS011;48199;49.138;7.414;2023-11-19T01:54:41;1.05;;;0.75;;
62202;SDS011;48199;49.138;7.414;2023-11-19T01:57:06;0.60;;;0.60;;
62202;SDS011;48199;49.138;7.414;2023-11-19T01:59:32;1.30;;;0.68;;
62202;SDS011;48199;49.138;7.414;2023-11-19T02:01:57;2.47;;;0.80;;
62202;SDS011;48199;49.138;7.414;2023-11-19T02:04:23;0.95;;;0.70;;
62202;SDS011;48199;49.138;7.414;2023-11-19T02:06:48;1.15;;;0.88;;
62202;SDS011;48199;49.138;7.414;2023-11-19T02:09:13;1.17;;;1.00;;
62202;SDS011;48199;49.138;7.414;2023-11-19T02:11:41;1.55;;;1.15;;
62202;SDS011;48199;49.138;7.414;2023-11-19T02:14:06;2.60;;;1.10;;
62202;SDS011;48199;49.138;7.414;2023-11-19T02:16:32;1.70;;;1.10;;
62202;SDS011;48199;49.138;7.414;2023-11-19T02:18:57;1.95;;;0.90;;
62202;SDS011;48199;49.138;7.414;2023-11-19T02:21:22;1.88;;;1.13;;
62202;SDS011;48199;49.138;7.414;2023-11-19T02:23:48;2.03;;;1.07;;
62202;SDS011;48199;49.138;7.414;2023-11-19T02:26:33;2.37;;;1.10;;
62202;SDS011;48199;49.138;7.414;2023-11-19T02:29:01;1.30;;;1.20;;
62202;SDS011;48199;49.138;7.414;2023-11-19T02:31:27;2.22;;;1.17;;
62202;SDS011;48199;49.138;7.414;2023-11-19T02:33:53;1.38;;;1.20;;
62202;SDS011;48199;49.138;7.414;2023-11-19T02:36:18;1.50;;;1.40;;
62202;SDS011;48199;49.138;7.414;2023-11-19T02:38:43;1.75;;;1.25;;
62202;SDS011;48199;49.138;7.414;2023-11-19T02:41:09;1.27;;;1.15;;
62202;SDS011;48199;49.138;7.414;2023-11-19T02:43:35;2.67;;;1.65;;
62202;SDS011;48199;49.138;7.414;2023-11-19T02:46:02;3.05;;;1.65;;
62202;SDS011;48199;49.138;7.414;2023-11-19T02:48:27;2.67;;;1.80;;
62202;SDS011;48199;49.138;7.414;2023-11-19T02:50:52;3.90;;;2.23;;
62202;SDS011;48199;49.138;7.414;2023-11-19T02:53:17;2.53;;;1.73;;
62202;SDS011;48199;49.138;7.414;2023-11-19T02:55:43;3.97;;;1.90;;
62202;SDS011;48199;49.138;7.414;2023-11-19T02:58:13;2.55;;;1.90;;
62202;SDS011;48199;49.138;7.414;2023-11-19T03:00:45;2.75;;;1.83;;
62202;SDS011;48199;49.138;7.414;2023-11-19T03:03:17;4.78;;;2.15;;
62202;SDS011;48199;49.138;7.414;2023-11-19T03:05:47;3.25;;;1.92;;
62202;SDS011;48199;49.138;7.414;2023-11-19T03:08:13;3.20;;;1.73;;
62202;SDS011;48199;49.138;7.414;2023-11-19T03:10:38;3.00;;;1.73;;
62202;SDS011;48199;49.138;7.414;2023-11-19T03:13:04;1.75;;;1.50;;
62202;SDS011;48199;49.138;7.414;2023-11-19T03:15:29;7.68;;;1.88;;
62202;SDS011;48199;49.138;7.414;2023-11-19T03:17:54;4.93;;;1.73;;
62202;SDS011;48199;49.138;7.414;2023-11-19T03:20:20;1.90;;;1.50;;
62202;SDS011;48199;49.138;7.414;2023-11-19T03:22:46;3.03;;;1.75;;
62202;SDS011;48199;49.138;7.414;2023-11-19T03:25:11;2.08;;;1.77;;
62202;SDS011;48199;49.138;7.414;2023-11-19T03:27:37;4.10;;;1.80;;
62202;SDS011;48199;49.138;7.414;2023-11-19T03:30:03;4.03;;;1.88;;
62202;SDS011;48199;49.138;7.414;2023-11-19T03:32:30;2.80;;;1.60;;
62202;SDS011;48199;49.138;7.414;2023-11-19T03:34:55;2.13;;;1.73;;
62202;SDS011;48199;49.138;7.414;2023-11-19T03:37:20;2.40;;;2.20;;
62202;SDS011;48199;49.138;7.414;2023-11-19T03:39:46;2.90;;;2.17;;
62202;SDS011;48199;49.138;7.414;2023-11-19T03:42:11;2.10;;;1.80;;
62202;SDS011;48199;49.138;7.414;2023-11-19T03:44:38;2.83;;;1.88;;
62202;SDS011;48199;49.138;7.414;2023-11-19T03:47:03;1.88;;;1.63;;
62202;SDS011;48199;49.138;7.414;2023-11-19T03:49:29;2.25;;;1.80;;
62202;SDS011;48199;49.138;7.414;2023-11-19T03:51:54;2.60;;;1.80;;
62202;SDS011;48199;49.138;7.414;2023-11-19T03:54:19;2.63;;;1.97;;
62202;SDS011;48199;49.138;7.414;2023-11-19T03:56:45;3.85;;;1.85;;
62202;SDS011;48199;49.138;7.414;2023-11-19T03:59:10;2.23;;;1.63;;
62202;SDS011;48199;49.138;7.414;2023-11-19T04:01:35;2.67;;;1.87;;
62202;SDS011;48199;49.138;7.414;2023-11-19T04:04:02;3.72;;;1.65;;
62202;SDS011;48199;49.138;7.414;2023-11-19T04:06:27;3.60;;;1.60;;
62202;SDS011;48199;49.138;7.414;2023-11-19T04:08:52;3.27;;;1.97;;
62202;SDS011;48199;49.138;7.414;2023-11-19T04:11:18;3.25;;;2.00;;
62202;SDS011;48199;49.138;7.414;2023-11-19T04:13:43;3.10;;;2.10;;
62202;SDS011;48199;49.138;7.414;2023-11-19T04:16:09;3.00;;;2.00;;
62202;SDS011;48199;49.138;7.414;2023-11-19T04:18:34;2.07;;;1.70;;
62202;SDS011;48199;49.138;7.414;2023-11-19T04:20:59;2.30;;;1.70;;
62202;SDS011;48199;49.138;7.414;2023-11-19T04:23:24;3.40;;;1.92;;
62202;SDS011;48199;49.138;7.414;2023-11-19T04:25:50;2.30;;;1.77;;
62202;SDS011;48199;49.138;7.414;2023-11-19T04:28:15;2.08;;;1.88;;
62202;SDS011;48199;49.138;7.414;2023-11-19T04:30:40;2.08;;;1.83;;
62202;SDS011;48199;49.138;7.414;2023-11-19T04:33:06;3.30;;;2.03;;
62202;SDS011;48199;49.138;7.414;2023-11-19T04:35:31;2.90;;;1.90;;
62202;SDS011;48199;49.138;7.414;2023-11-19T04:37:56;2.00;;;1.63;;
62202;SDS011;48199;49.138;7.414;2023-11-19T04:40:22;2.60;;;1.65;;
62202;SDS011;48199;49.138;7.414;2023-11-19T04:42:48;1.38;;;1.27;;
62202;SDS011;48199;49.138;7.414;2023-11-19T04:45:13;1.90;;;1.60;;
62202;SDS011;48199;49.138;7.414;2023-11-19T04:47:38;5.30;;;1.50;;
62202;SDS011;48199;49.138;7.414;2023-11-19T04:50:04;2.97;;;1.80;;
62202;SDS011;48199;49.138;7.414;2023-11-19T04:52:29;2.60;;;1.67;;
62202;SDS011;48199;49.138;7.414;2023-11-19T04:54:54;3.63;;;1.40;;
62202;SDS011;48199;49.138;7.414;2023-11-19T04:57:19;4.00;;;1.33;;
62202;SDS011;48199;49.138;7.414;2023-11-19T04:59:45;3.90;;;1.50;;
62202;SDS011;48199;49.138;7.414;2023-11-19T05:02:10;1.58;;;1.10;;
62202;SDS011;48199;49.138;7.414;2023-11-19T05:04:35;1.30;;;1.20;;
62202;SDS011;48199;49.138;7.414;2023-11-19T05:07:02;3.47;;;1.10;;
62202;SDS011;48199;49.138;7.414;2023-11-19T05:09:27;1.77;;;1.13;;
62202;SDS011;48199;49.138;7.414;2023-11-19T05:11:53;2.50;;;0.90;;
62202;SDS011;48199;49.138;7.414;2023-11-19T05:14:18;2.55;;;1.00;;
62202;SDS011;48199;49.138;7.414;2023-11-19T05:16:45;1.73;;;1.08;;
62202;SDS011;48199;49.138;7.414;2023-11-19T05:19:10;1.05;;;0.82;;
62202;SDS011;48199;49.138;7.414;2023-11-19T05:21:36;1.45;;;1.05;;
62202;SDS011;48199;49.138;7.414;2023-11-19T05:24:03;1.77;;;0.98;;
62202;SDS011;48199;49.138;7.414;2023-11-19T05:26:32;2.53;;;1.10;;
62202;SDS011;48199;49.138;7.414;2023-11-19T05:28:57;1.33;;;1.00;;
62202;SDS011;48199;49.138;7.414;2023-11-19T05:31:22;1.65;;;1.00;;
62202;SDS011;48199;49.138;7.414;2023-11-19T05:33:47;1.80;;;1.10;;
62202;SDS011;48199;49.138;7.414;2023-11-19T05:36:13;2.55;;;1.50;;
62202;SDS011;48199;49.138;7.414;2023-11-19T05:38:38;1.35;;;1.08;;
62202;SDS011;48199;49.138;7.414;2023-11-19T05:41:03;0.90;;;0.90;;
62202;SDS011;48199;49.138;7.414;2023-11-19T05:43:29;0.73;;;0.70;;
62202;SDS011;48199;49.138;7.414;2023-11-19T05:45:55;3.35;;;0.85;;
62202;SDS011;48199;49.138;7.414;2023-11-19T05:48:20;1.87;;;1.13;;
62202;SDS011;48199;49.138;7.414;2023-11-19T05:50:45;1.73;;;1.10;;
62202;SDS011;48199;49.138;7.414;2023-11-19T05:53:11;1.35;;;1.13;;
62202;SDS011;48199;49.138;7.414;2023-11-19T05:55:38;1.48;;;0.90;;
62202;SDS011;48199;49.138;7.414;2023-11-19T05:58:11;2.75;;;1.63;;
62202;SDS011;48199;49.138;7.414;2023-11-19T06:00:37;2.67;;;1.48;;
62202;SDS011;48199;49.138;7.414;2023-11-19T06:03:02;1.30;;;1.20;;
62202;SDS011;48199;49.138;7.414;2023-11-19T06:05:27;1.60;;;1.30;;
62202;SDS011;48199;49.138;7.414;2023-11-19T06:07:53;2.53;;;1.60;;
62202;SDS011;48199;49.138;7.414;2023-11-19T06:10:18;1.53;;;1.33;;
62202;SDS011;48199;49.138;7.414;2023-11-19T06:12:45;3.08;;;1.60;;
62202;SDS011;48199;49.138;7.414;2023-11-19T06:15:11;2.58;;;1.20;;
62202;SDS011;48199;49.138;7.414;2023-11-19T06:17:36;1.25;;;1.15;;
62202;SDS011;48199;49.138;7.414;2023-11-19T06:20:01;2.10;;;1.13;;
62202;SDS011;48199;49.138;7.414;2023-11-19T06:22:29;3.17;;;1.30;;
62202;SDS011;48199;49.138;7.414;2023-11-19T06:24:54;1.63;;;1.03;;
62202;SDS011;48199;49.138;7.414;2023-11-19T06:27:19;1.77;;;1.10;;
62202;SDS011;48199;49.138;7.414;2023-11-19T06:29:44;1.33;;;1.00;;
62202;SDS011;48199;49.138;7.414;2023-11-19T06:32:10;1.50;;;0.93;;
62202;SDS011;48199;49.138;7.414;2023-11-19T06:34:35;1.63;;;0.90;;
62202;SDS011;48199;49.138;7.414;2023-11-19T06:37:00;1.58;;;1.20;;
62202;SDS011;48199;49.138;7.414;2023-11-19T06:39:28;2.20;;;1.20;;
62202;SDS011;48199;49.138;7.414;2023-11-19T06:41:53;1.88;;;1.40;;
62202;SDS011;48199;49.138;7.414;2023-11-19T06:44:18;2.20;;;1.10;;
62202;SDS011;48199;49.138;7.414;2023-11-19T06:46:43;2.75;;;1.02;;
62202;SDS011;48199;49.138;7.414;2023-11-19T06:49:09;2.30;;;1.20;;
62202;SDS011;48199;49.138;7.414;2023-11-19T06:51:34;1.43;;;1.20;;
62202;SDS011;48199;49.138;7.414;2023-11-19T06:53:59;3.47;;;1.30;;
62202;SDS011;48199;49.138;7.414;2023-11-19T06:56:24;2.30;;;1.20;;
62202;SDS011;48199;49.138;7.414;2023-11-19T06:58:50;1.92;;;1.50;;
62202;SDS011;48199;49.138;7.414;2023-11-19T07:01:16;2.80;;;1.35;;
62202;SDS011;48199;49.138;7.414;2023-11-19T07:03:41;2.22;;;1.75;;
62202;SDS011;48199;49.138;7.414;2023-11-19T07:06:06;4.97;;;1.55;;
62202;SDS011;48199;49.138;7.414;2023-11-19T07:08:32;4.15;;;1.95;;
62202;SDS011;48199;49.138;7.414;2023-11-19T07:10:57;3.08;;;1.75;;
62202;SDS011;48199;49.138;7.414;2023-11-19T07:13:22;6.32;;;1.83;;
62202;SDS011;48199;49.138;7.414;2023-11-19T07:15:48;3.67;;;1.73;;
62202;SDS011;48199;49.138;7.414;2023-11-19T07:18:13;2.00;;;1.50;;
62202;SDS011;48199;49.138;7.414;2023-11-19T07:20:39;4.78;;;1.85;;
62202;SDS011;48199;49.138;7.414;2023-11-19T07:23:05;5.03;;;1.80;;
62202;SDS011;48199;49.138;7.414;2023-11-19T07:25:31;2.10;;;1.40;;
62202;SDS011;48199;49.138;7.414;2023-11-19T07:27:56;2.65;;;1.50;;
62202;SDS011;48199;49.138;7.414;2023-11-19T07:30:22;2.03;;;1.42;;
62202;SDS011;48199;49.138;7.414;2023-11-19T07:32:47;1.63;;;1.42;;
62202;SDS011;48199;49.138;7.414;2023-11-19T07:35:13;3.03;;;1.50;;
62202;SDS011;48199;49.138;7.414;2023-11-19T07:37:38;5.90;;;1.60;;
62202;SDS011;48199;49.138;7.414;2023-11-19T07:40:04;3.20;;;1.45;;
62202;SDS011;48199;49.138;7.414;2023-11-19T07:42:29;8.02;;;1.52;;
62202;SDS011;48199;49.138;7.414;2023-11-19T07:44:56;4.30;;;1.60;;
62202;SDS011;48199;49.138;7.414;2023-11-19T07:47:22;2.40;;;1.70;;
62202;SDS011;48199;49.138;7.414;2023-11-19T07:49:48;6.65;;;1.75;;
62202;SDS011;48199;49.138;7.414;2023-11-19T07:52:13;5.18;;;1.73;;
62202;SDS011;48199;49.138;7.414;2023-11-19T07:54:38;9.63;;;1.87;;
62202;SDS011;48199;49.138;7.414;2023-11-19T07:57:04;11.40;;;1.83;;
62202;SDS011;48199;49.138;7.414;2023-11-19T07:59:29;7.70;;;1.70;;
62202;SDS011;48199;49.138;7.414;2023-11-19T08:01:54;5.97;;;1.43;;
62202;SDS011;48199;49.138;7.414;2023-11-19T08:04:19;2.70;;;1.40;;
62202;SDS011;48199;49.138;7.414;2023-11-19T08:06:44;2.50;;;1.37;;
62202;SDS011;48199;49.138;7.414;2023-11-19T08:09:10;2.60;;;1.33;;
62202;SDS011;48199;49.138;7.414;2023-11-19T08:11:39;5.20;;;1.35;;
62202;SDS011;48199;49.138;7.414;2023-11-19T08:14:05;3.70;;;1.40;;
62202;SDS011;48199;49.138;7.414;2023-11-19T08:16:30;3.87;;;1.40;;
62202;SDS011;48199;49.138;7.414;2023-11-19T08:18:55;8.23;;;1.40;;
62202;SDS011;48199;49.138;7.414;2023-11-19T08:21:23;2.97;;;1.17;;
62202;SDS011;48199;49.138;7.414;2023-11-19T08:23:48;1.00;;;0.90;;
62202;SDS011;48199;49.138;7.414;2023-11-19T08:26:14;4.67;;;1.20;;
62202;SDS011;48199;49.138;7.414;2023-11-19T08:28:39;1.52;;;1.20;;
62202;SDS011;48199;49.138;7.414;2023-11-19T08:31:04;2.80;;;1.10;;
62202;SDS011;48199;49.138;7.414;2023-11-19T08:33:30;2.08;;;1.20;;
62202;SDS011;48199;49.138;7.414;2023-11-19T08:35:55;3.13;;;1.15;;
62202;SDS011;48199;49.138;7.414;2023-11-19T08:38:20;1.67;;;1.10;;
62202;SDS011;48199;49.138;7.414;2023-11-19T08:40:46;2.42;;;1.20;;
62202;SDS011;48199;49.138;7.414;2023-11-19T08:43:11;5.33;;;1.00;;
62202;SDS011;48199;49.138;7.414;2023-11-19T08:45:36;3.40;;;1.37;;
62202;SDS011;48199;49.138;7.414;2023-11-19T08:48:02;1.38;;;1.05;;
62202;SDS011;48199;49.138;7.414;2023-11-19T08:50:27;4.30;;;1.15;;
62202;SDS011;48199;49.138;7.414;2023-11-19T08:52:52;3.03;;;1.15;;
62202;SDS011;48199;49.138;7.414;2023-11-19T08:55:18;1.67;;;1.10;;
62202;SDS011;48199;49.138;7.414;2023-11-19T08:57:43;1.40;;;1.08;;
62202;SDS011;48199;49.138;7.414;2023-11-19T09:00:08;1.40;;;1.20;;
62202;SDS011;48199;49.138;7.414;2023-11-19T09:02:36;1.35;;;1.20;;
62202;SDS011;48199;49.138;7.414;2023-11-19T09:05:02;1.58;;;1.20;;
62202;SDS011;48199;49.138;7.414;2023-11-19T09:07:27;4.47;;;1.13;;
62202;SDS011;48199;49.138;7.414;2023-11-19T09:09:52;2.87;;;1.27;;
62202;SDS011;48199;49.138;7.414;2023-11-19T09:12:18;1.87;;;1.27;;
62202;SDS011;48199;49.138;7.414;2023-11-19T09:14:43;1.87;;;1.37;;
62202;SDS011;48199;49.138;7.414;2023-11-19T09:17:08;4.17;;;1.23;;
62202;SDS011;48199;49.138;7.414;2023-11-19T09:19:34;2.85;;;1.40;;
62202;SDS011;48199;49.138;7.414;2023-11-19T09:22:00;7.38;;;1.40;;
62202;SDS011;48199;49.138;7.414;2023-11-19T09:24:26;4.83;;;1.33;;
62202;SDS011;48199;49.138;7.414;2023-11-19T09:26:51;2.73;;;1.00;;
62202;SDS011;48199;49.138;7.414;2023-11-19T09:29:16;1.55;;;0.90;;
62202;SDS011;48199;49.138;7.414;2023-11-19T09:31:42;4.30;;;1.08;;
62202;SDS011;48199;49.138;7.414;2023-11-19T09:34:07;3.00;;;1.17;;
62202;SDS011;48199;49.138;7.414;2023-11-19T09:36:32;1.70;;;1.30;;
62202;SDS011;48199;49.138;7.414;2023-11-19T09:38:58;6.57;;;1.23;;
62202;SDS011;48199;49.138;7.414;2023-11-19T09:41:25;3.00;;;1.52;;
62202;SDS011;48199;49.138;7.414;2023-11-19T09:43:52;5.05;;;1.00;;
62202;SDS011;48199;49.138;7.414;2023-11-19T09:46:18;2.00;;;1.10;;
62202;SDS011;48199;49.138;7.414;2023-11-19T09:48:44;2.35;;;1.00;;
62202;SDS011;48199;49.138;7.414;2023-11-19T09:51:10;4.88;;;1.10;;
62202;SDS011;48199;49.138;7.414;2023-11-19T09:53:35;2.00;;;1.00;;
62202;SDS011;48199;49.138;7.414;2023-11-19T09:56:01;3.17;;;1.15;;
62202;SDS011;48199;49.138;7.414;2023-11-19T09:58:28;2.50;;;1.08;;
62202;SDS011;48199;49.138;7.414;2023-11-19T10:00:53;4.18;;;1.38;;
62202;SDS011;48199;49.138;7.414;2023-11-19T10:03:19;1.87;;;1.00;;
62202;SDS011;48199;49.138;7.414;2023-11-19T10:05:44;5.18;;;0.98;;
62202;SDS011;48199;49.138;7.414;2023-11-19T10:08:09;3.27;;;1.10;;
62202;SDS011;48199;49.138;7.414;2023-11-19T10:10:36;2.17;;;0.90;;
62202;SDS011;48199;49.138;7.414;2023-11-19T10:13:01;1.77;;;0.80;;
62202;SDS011;48199;49.138;7.414;2023-11-19T10:15:26;3.28;;;1.00;;
62202;SDS011;48199;49.138;7.414;2023-11-19T10:18:01;2.17;;;0.93;;
62202;SDS011;48199;49.138;7.414;2023-11-19T10:20:26;5.57;;;1.10;;
62202;SDS011;48199;49.138;7.414;2023-11-19T10:22:54;3.83;;;1.08;;
62202;SDS011;48199;49.138;7.414;2023-11-19T10:25:27;1.77;;;0.98;;
62202;SDS011;48199;49.138;7.414;2023-11-19T10:30:21;3.63;;;1.10;;
62202;SDS011;48199;49.138;7.414;2023-11-19T10:33:02;1.85;;;1.02;;
62202;SDS011;48199;49.138;7.414;2023-11-19T10:35:27;2.40;;;0.90;;
62202;SDS011;48199;49.138;7.414;2023-11-19T10:37:52;5.77;;;1.20;;
62202;SDS011;48199;49.138;7.414;2023-11-19T10:40:17;2.08;;;1.08;;
62202;SDS011;48199;49.138;7.414;2023-11-19T10:42:43;2.67;;;1.02;;
62202;SDS011;48199;49.138;7.414;2023-11-19T10:45:23;3.63;;;0.93;;
62202;SDS011;48199;49.138;7.414;2023-11-19T10:47:49;5.75;;;1.23;;
62202;SDS011;48199;49.138;7.414;2023-11-19T10:50:16;3.30;;;0.98;;
62202;SDS011;48199;49.138;7.414;2023-11-19T10:52:41;2.93;;;1.03;;
62202;SDS011;48199;49.138;7.414;2023-11-19T10:55:06;7.00;;;1.23;;
62202;SDS011;48199;49.138;7.414;2023-11-19T10:57:33;3.22;;;1.10;;
62202;SDS011;48199;49.138;7.414;2023-11-19T11:00:01;11.38;;;1.30;;
62202;SDS011;48199;49.138;7.414;2023-11-19T11:02:27;5.60;;;1.20;;
62202;SDS011;48199;49.138;7.414;2023-11-19T11:04:53;4.20;;;1.25;;
62202;SDS011;48199;49.138;7.414;2023-11-19T11:07:21;8.73;;;1.15;;
62202;SDS011;48199;49.138;7.414;2023-11-19T11:09:47;5.47;;;1.20;;
62202;SDS011;48199;49.138;7.414;2023-11-19T11:12:14;8.77;;;1.13;;
62202;SDS011;48199;49.138;7.414;2023-11-19T11:14:40;4.28;;;1.10;;
62202;SDS011;48199;49.138;7.414;2023-11-19T11:17:07;4.90;;;1.25;;
62202;SDS011;48199;49.138;7.414;2023-11-19T11:19:34;3.78;;;1.15;;
62202;SDS011;48199;49.138;7.414;2023-11-19T11:22:00;6.28;;;0.95;;
62202;SDS011;48199;49.138;7.414;2023-11-19T11:36:55;3.35;;;1.05;;
62202;SDS011;48199;49.138;7.414;2023-11-19T11:39:23;2.15;;;0.80;;
62202;SDS011;48199;49.138;7.414;2023-11-19T11:42:18;4.70;;;1.17;;
62202;SDS011;48199;49.138;7.414;2023-11-19T11:47:19;4.80;;;1.08;;
62202;SDS011;48199;49.138;7.414;2023-11-19T11:49:44;1.57;;;0.70;;
62202;SDS011;48199;49.138;7.414;2023-11-19T11:52:09;4.45;;;1.00;;
62202;SDS011;48199;49.138;7.414;2023-11-19T11:54:39;6.00;;;1.25;;
62202;SDS011;48199;49.138;7.414;2023-11-19T11:57:10;4.28;;;0.80;;
62202;SDS011;48199;49.138;7.414;2023-11-19T12:02:07;3.13;;;0.70;;
62202;SDS011;48199;49.138;7.414;2023-11-19T12:04:34;4.57;;;0.68;;
62202;SDS011;48199;49.138;7.414;2023-11-19T12:09:31;5.80;;;0.80;;
62202;SDS011;48199;49.138;7.414;2023-11-19T12:20:01;2.92;;;0.70;;
62202;SDS011;48199;49.138;7.414;2023-11-19T12:22:26;5.35;;;1.35;;
62202;SDS011;48199;49.138;7.414;2023-11-19T12:24:53;3.10;;;0.90;;
62202;SDS011;48199;49.138;7.414;2023-11-19T12:27:18;5.38;;;0.80;;
62202;SDS011;48199;49.138;7.414;2023-11-19T12:29:46;5.32;;;1.02;;
62202;SDS011;48199;49.138;7.414;2023-11-19T12:32:12;4.22;;;0.90;;
62202;SDS011;48199;49.138;7.414;2023-11-19T12:34:38;2.75;;;0.73;;
62202;SDS011;48199;49.138;7.414;2023-11-19T12:37:03;2.10;;;1.00;;
62202;SDS011;48199;49.138;7.414;2023-11-19T12:39:31;6.45;;;0.80;;
62202;SDS011;48199;49.138;7.414;2023-11-19T12:41:57;3.33;;;0.80;;
62202;SDS011;48199;49.138;7.414;2023-11-19T12:44:27;6.68;;;1.00;;
62202;SDS011;48199;49.138;7.414;2023-11-19T12:47:05;5.45;;;0.95;;
62202;SDS011;48199;49.138;7.414;2023-11-19T12:49:31;3.30;;;0.80;;
62202;SDS011;48199;49.138;7.414;2023-11-19T12:51:56;1.52;;;0.47;;
62202;SDS011;48199;49.138;7.414;2023-11-19T12:54:34;6.37;;;1.00;;
62202;SDS011;48199;49.138;7.414;2023-11-19T12:56:59;6.63;;;0.80;;
62202;SDS011;48199;49.138;7.414;2023-11-19T12:59:25;5.05;;;0.77;;
62202;SDS011;48199;49.138;7.414;2023-11-19T13:01:55;4.32;;;0.80;;
62202;SDS011;48199;49.138;7.414;2023-11-19T13:04:21;3.03;;;0.75;;
62202;SDS011;48199;49.138;7.414;2023-11-19T13:06:46;2.67;;;0.90;;
62202;SDS011;48199;49.138;7.414;2023-11-19T13:09:27;4.15;;;0.80;;
62202;SDS011;48199;49.138;7.414;2023-11-19T13:11:53;1.92;;;0.60;;
62202;SDS011;48199;49.138;7.414;2023-11-19T13:14:19;4.22;;;0.80;;
62202;SDS011;48199;49.138;7.414;2023-11-19T13:16:44;2.40;;;0.70;;
62202;SDS011;48199;49.138;7.414;2023-11-19T13:19:13;5.85;;;1.08;;
62202;SDS011;48199;49.138;7.414;2023-11-19T13:21:38;2.70;;;0.55;;
62202;SDS011;48199;49.138;7.414;2023-11-19T13:24:05;8.32;;;0.95;;
62202;SDS011;48199;49.138;7.414;2023-11-19T13:26:30;4.55;;;0.75;;
62202;SDS011;48199;49.138;7.414;2023-11-19T13:28:56;6.03;;;1.20;;
62202;SDS011;48199;49.138;7.414;2023-11-19T13:31:22;4.47;;;1.17;;
62202;SDS011;48199;49.138;7.414;2023-11-19T13:33:47;3.13;;;0.73;;
62202;SDS011;48199;49.138;7.414;2023-11-19T13:36:12;4.32;;;0.93;;
62202;SDS011;48199;49.138;7.414;2023-11-19T13:38:37;10.32;;;1.08;;
62202;SDS011;48199;49.138;7.414;2023-11-19T13:41:04;6.80;;;0.88;;
62202;SDS011;48199;49.138;7.414;2023-11-19T13:43:29;7.90;;;0.95;;
62202;SDS011;48199;49.138;7.414;2023-11-19T13:45:55;4.30;;;0.70;;
62202;SDS011;48199;49.138;7.414;2023-11-19T13:48:20;5.85;;;1.23;;
62202;SDS011;48199;49.138;7.414;2023-11-19T13:50:46;6.90;;;1.15;;
62202;SDS011;48199;49.138;7.414;2023-11-19T13:53:11;3.95;;;1.00;;
62202;SDS011;48199;49.138;7.414;2023-11-19T13:55:37;4.80;;;1.20;;
62202;SDS011;48199;49.138;7.414;2023-11-19T13:58:02;3.27;;;0.70;;
62202;SDS011;48199;49.138;7.414;2023-11-19T14:00:27;7.93;;;1.07;;
62202;SDS011;48199;49.138;7.414;2023-11-19T14:02:52;6.70;;;0.93;;
62202;SDS011;48199;49.138;7.414;2023-11-19T14:05:18;4.45;;;0.93;;
62202;SDS011;48199;49.138;7.414;2023-11-19T14:07:44;3.88;;;0.75;;
62202;SDS011;48199;49.138;7.414;2023-11-19T14:10:09;3.78;;;0.70;;
62202;SDS011;48199;49.138;7.414;2023-11-19T14:12:36;2.92;;;0.73;;
62202;SDS011;48199;49.138;7.414;2023-11-19T14:15:02;7.05;;;0.93;;
62202;SDS011;48199;49.138;7.414;2023-11-19T14:17:27;7.93;;;1.10;;
62202;SDS011;48199;49.138;7.414;2023-11-19T14:19:52;4.73;;;0.90;;
62202;SDS011;48199;49.138;7.414;2023-11-19T14:22:18;3.25;;;0.80;;
62202;SDS011;48199;49.138;7.414;2023-11-19T14:24:44;2.90;;;0.70;;
62202;SDS011;48199;49.138;7.414;2023-11-19T14:27:09;5.40;;;1.02;;
62202;SDS011;48199;49.138;7.414;2023-11-19T14:29:35;4.30;;;0.82;;
62202;SDS011;48199;49.138;7.414;2023-11-19T14:32:01;3.40;;;0.77;;
62202;SDS011;48199;49.138;7.414;2023-11-19T14:34:26;2.45;;;0.82;;
62202;SDS011;48199;49.138;7.414;2023-11-19T14:36:52;5.47;;;1.15;;
62202;SDS011;48199;49.138;7.414;2023-11-19T14:39:18;5.57;;;1.13;;
62202;SDS011;48199;49.138;7.414;2023-11-19T14:41:43;4.47;;;1.00;;
62202;SDS011;48199;49.138;7.414;2023-11-19T14:44:11;6.10;;;1.10;;
62202;SDS011;48199;49.138;7.414;2023-11-19T14:46:37;6.22;;;1.13;;
62202;SDS011;48199;49.138;7.414;2023-11-19T14:49:02;3.08;;;0.70;;
62202;SDS011;48199;49.138;7.414;2023-11-19T14:51:29;5.13;;;1.10;;
62202;SDS011;48199;49.138;7.414;2023-11-19T14:53:54;4.90;;;0.85;;
62202;SDS011;48199;49.138;7.414;2023-11-19T14:56:19;7.18;;;0.88;;
62202;SDS011;48199;49.138;7.414;2023-11-19T14:58:45;10.80;;;1.20;;
62202;SDS011;48199;49.138;7.414;2023-11-19T15:01:13;4.17;;;1.43;;
62202;SDS011;48199;49.138;7.414;2023-11-19T15:03:38;5.95;;;0.80;;
62202;SDS011;48199;49.138;7.414;2023-11-19T15:06:03;3.30;;;1.00;;
62202;SDS011;48199;49.138;7.414;2023-11-19T15:08:29;4.18;;;0.88;;
62202;SDS011;48199;49.138;7.414;2023-11-19T15:10:55;3.20;;;0.93;;